N931CD KSNC-KSNC

Flight info

Callsign N931CD
Flight time N/A
Altitude 3500
Route MAD
Aircraft BE58/L-G/C

Departure

Time 2026-04-13 23:29
Airport Chester Airport (KSNC)

Arrival

Time N/A
Airport Chester Airport (KSNC)
Time Latitude Longitude Altitude Speed Heading
2026-04-13 23:22 41.38341 -72.50633 408 ft 0 kts 256°
2026-04-13 23:23 41.38342 -72.50629 408 ft 2 kts 261°
2026-04-13 23:24 41.38338 -72.50621 408 ft 0 kts 340°
2026-04-13 23:27 41.38339 -72.50621 408 ft 1 kts 339°
2026-04-13 23:27 41.38361 -72.50604 408 ft 3 kts 101°
2026-04-13 23:27 41.38324 -72.50602 408 ft 7 kts 163°
2026-04-13 23:27 41.38241 -72.50564 408 ft 16 kts 160°
2026-04-13 23:28 41.38148 -72.50520 410 ft 12 kts 159°
2026-04-13 23:28 41.38094 -72.50477 411 ft 8 kts 121°
2026-04-13 23:28 41.38103 -72.50453 410 ft 1 kts 301°
2026-04-13 23:28 41.38113 -72.50463 410 ft 0 kts 339°
2026-04-13 23:29 41.38238 -72.50520 407 ft 58 kts 341°
2026-04-13 23:29 41.38893 -72.50822 491 ft 131 kts 340°
2026-04-13 23:29 41.39872 -72.51249 876 ft 161 kts 339°
2026-04-13 23:29 41.41032 -72.51660 1121 ft 176 kts 343°
2026-04-13 23:30 41.42235 -72.51893 1336 ft 174 kts 345°
2026-04-13 23:30 41.43426 -72.52065 1553 ft 168 kts 338°
2026-04-13 23:30 41.44286 -72.52844 1770 ft 141 kts 290°
2026-04-13 23:30 41.44348 -72.54022 2004 ft 127 kts 254°
2026-04-13 23:31 41.43998 -72.55098 2219 ft 128 kts 238°
2026-04-13 23:31 41.43348 -72.55919 2447 ft 130 kts 226°
2026-04-13 23:31 41.42629 -72.56684 2497 ft 139 kts 227°
2026-04-13 23:31 41.41877 -72.57526 2505 ft 143 kts 228°
2026-04-13 23:32 41.41105 -72.58395 2508 ft 148 kts 227°
2026-04-13 23:32 41.40313 -72.59291 2506 ft 150 kts 227°
2026-04-13 23:32 41.39505 -72.60187 2505 ft 152 kts 227°
2026-04-13 23:32 41.38688 -72.61095 2505 ft 154 kts 227°
2026-04-13 23:33 41.37871 -72.62003 2505 ft 152 kts 227°
2026-04-13 23:33 41.37062 -72.62905 2506 ft 151 kts 227°
2026-04-13 23:33 41.36257 -72.63809 2509 ft 151 kts 227°
2026-04-13 23:33 41.35454 -72.64701 2504 ft 149 kts 226°
2026-04-13 23:34 41.34660 -72.65578 2505 ft 148 kts 227°